createdAt,value
2022-11-09T00:06:40.378Z,11
2022-11-09T00:11:52.490Z,11
2022-11-09T00:17:04.555Z,11
2022-11-09T00:22:17.325Z,11
2022-11-09T00:27:30.231Z,11
2022-11-09T00:32:42.435Z,11
2022-11-09T00:37:54.673Z,11
2022-11-09T00:43:07.694Z,11
2022-11-09T00:48:20.476Z,11
2022-11-09T00:53:32.456Z,11
2022-11-09T00:58:44.520Z,12
2022-11-09T01:03:56.644Z,12
2022-11-09T01:09:09.066Z,12
2022-11-09T01:14:22.482Z,12
2022-11-09T01:19:35.186Z,11
2022-11-09T01:24:47.036Z,11
2022-11-09T01:30:00.118Z,12
2022-11-09T01:35:12.449Z,12
2022-11-09T01:40:25.365Z,11
2022-11-09T01:45:37.373Z,11
2022-11-09T01:50:49.433Z,12
2022-11-09T01:56:02.021Z,12
2022-11-09T02:01:15.164Z,11
2022-11-09T02:06:27.420Z,11
2022-11-09T02:11:39.385Z,12
2022-11-09T02:16:51.688Z,12
2022-11-09T02:27:14.068Z,11
2022-11-09T02:32:26.218Z,11
2022-11-09T02:37:38.834Z,12
2022-11-09T02:42:51.673Z,11
2022-11-09T02:48:03.586Z,11
2022-11-09T02:53:15.515Z,11
2022-11-09T02:58:28.808Z,11
2022-11-09T03:08:50.959Z,11
2022-11-09T03:14:02.967Z,11
2022-11-09T03:19:15.277Z,11
2022-11-09T03:24:27.991Z,11
2022-11-09T03:29:39.678Z,11
2022-11-09T03:34:51.677Z,11
2022-11-09T03:40:04.221Z,11
2022-11-09T03:45:17.187Z,11
2022-11-09T03:50:28.978Z,11
2022-11-09T03:55:41.113Z,11
2022-11-09T04:00:52.988Z,11
2022-11-09T04:06:05.206Z,11
2022-11-09T04:11:18.162Z,11
2022-11-09T04:16:29.919Z,11
2022-11-09T04:21:41.806Z,11
2022-11-09T04:26:54.343Z,11
2022-11-09T04:42:26.230Z,11
2022-11-09T04:47:38.497Z,11
2022-11-09T04:52:52.808Z,11
2022-11-09T04:58:04.523Z,11
2022-11-09T05:49:45.365Z,11
2022-11-09T06:05:17.372Z,11
2022-11-09T06:15:39.007Z,11
2022-11-09T06:20:51.439Z,11
2022-11-09T06:31:13.209Z,11
2022-11-09T06:36:26.328Z,11
2022-11-09T06:46:47.798Z,11
2022-11-09T06:57:09.851Z,11
2022-11-09T07:02:23.107Z,11
2022-11-09T07:07:34.643Z,11
2022-11-09T07:12:46.747Z,12
2022-11-09T07:17:59.605Z,12
2022-11-09T07:23:11.799Z,12
2022-11-09T07:28:24.076Z,12
2022-11-09T07:33:36.056Z,13
2022-11-09T07:38:48.284Z,13
2022-11-09T07:44:01.336Z,13
2022-11-09T07:49:14.053Z,13
2022-11-09T07:54:26.813Z,13
2022-11-09T07:59:39.541Z,13
2022-11-09T08:04:52.353Z,13
2022-11-09T08:10:04.504Z,14
2022-11-09T08:15:16.607Z,14
2022-11-09T08:20:28.995Z,15
2022-11-09T08:25:41.068Z,15
2022-11-09T08:30:53.285Z,15
2022-11-09T08:36:05.450Z,15
2022-11-09T08:41:17.668Z,16
2022-11-09T08:46:29.960Z,16
2022-11-09T08:51:42.125Z,16
2022-11-09T08:56:54.055Z,16
2022-11-09T09:02:06.574Z,16
2022-11-09T09:07:19.095Z,16
2022-11-09T09:12:31.535Z,17
2022-11-09T09:17:43.651Z,17
2022-11-09T09:22:55.804Z,17
2022-11-09T09:28:07.858Z,17
2022-11-09T09:33:19.997Z,17
2022-11-09T09:38:32.084Z,17
2022-11-09T09:43:44.513Z,17
2022-11-09T09:48:56.527Z,17
2022-11-09T09:54:08.653Z,17
2022-11-09T09:59:20.975Z,17
2022-11-09T10:04:33.381Z,17
2022-11-09T10:09:45.635Z,17
2022-11-09T10:14:57.823Z,17
2022-11-09T10:20:09.834Z,18
2022-11-09T10:26:05.451Z,18
2022-11-09T10:31:21.483Z,17
2022-11-09T10:36:33.529Z,18
2022-11-09T10:41:45.760Z,18
2022-11-09T10:46:58.011Z,18
2022-11-09T10:52:10.184Z,19
2022-11-09T10:57:22.534Z,19
2022-11-09T11:02:35.772Z,19
2022-11-09T11:07:48.975Z,20
2022-11-09T11:13:02.330Z,21
2022-11-09T11:18:15.598Z,23
2022-11-09T11:23:29.989Z,26
2022-11-09T11:28:45.258Z,28
2022-11-09T11:33:59.233Z,28
2022-11-09T11:39:11.990Z,28
2022-11-09T11:49:30.699Z,23
2022-11-09T12:05:02.625Z,22
2022-11-09T12:10:15.817Z,22
2022-11-09T12:15:28.108Z,24
2022-11-09T16:26:15.254Z,17
2022-11-09T16:31:53.050Z,17
2022-11-09T16:37:01.558Z,17
2022-11-09T16:42:13.447Z,17
2022-11-09T16:52:51.717Z,17
2022-11-09T16:58:03.464Z,17
2022-11-09T17:03:15.332Z,17
2022-11-09T17:08:27.460Z,17
2022-11-09T17:13:39.604Z,17
2022-11-09T17:18:51.553Z,16
2022-11-09T17:24:03.437Z,17
2022-11-09T17:29:15.551Z,17
2022-11-09T17:34:27.689Z,17
2022-11-09T17:39:39.847Z,17
2022-11-09T17:44:52.055Z,17
2022-11-09T17:50:03.937Z,16
2022-11-09T17:55:15.919Z,16
2022-11-09T18:00:28.055Z,16
2022-11-09T18:05:39.997Z,16
2022-11-09T18:10:51.941Z,16
2022-11-09T18:16:03.995Z,16
2022-11-09T18:21:15.794Z,16
2022-11-09T18:26:27.807Z,16
2022-11-09T18:31:39.838Z,16
2022-11-09T18:36:51.552Z,16
2022-11-09T18:42:03.424Z,16
2022-11-09T18:47:15.525Z,16
2022-11-09T18:52:27.562Z,16
2022-11-09T18:57:39.562Z,16
2022-11-09T19:02:51.912Z,16
2022-11-09T19:08:05.280Z,16
2022-11-09T19:13:16.787Z,16
2022-11-09T19:18:28.666Z,16
2022-11-09T19:23:40.580Z,16
2022-11-09T19:28:52.421Z,16
2022-11-09T19:34:04.372Z,16
2022-11-09T19:39:16.252Z,15
2022-11-09T19:44:28.173Z,15
2022-11-09T19:49:40.163Z,15
2022-11-09T19:54:52.921Z,15
2022-11-09T20:00:05.041Z,15
2022-11-09T20:05:17.448Z,15
2022-11-09T20:10:29.683Z,15
2022-11-09T20:15:41.901Z,15
2022-11-09T20:20:54.408Z,15
2022-11-09T20:26:06.812Z,15
2022-11-09T20:31:18.903Z,15
2022-11-09T20:36:31.261Z,15
2022-11-09T20:41:43.248Z,15
2022-11-09T20:46:55.306Z,15
2022-11-09T20:52:07.390Z,15
2022-11-09T20:57:19.381Z,15
2022-11-09T21:02:31.596Z,15
2022-11-09T21:07:43.602Z,15
2022-11-09T21:12:55.844Z,15
2022-11-09T21:23:19.283Z,15
2022-11-09T21:28:31.520Z,15
2022-11-09T21:33:43.776Z,15
2022-11-09T21:38:56.045Z,15
2022-11-09T21:44:10.788Z,15
2022-11-09T21:49:21.945Z,15
2022-11-09T21:54:34.670Z,15
2022-11-09T21:59:46.740Z,15
2022-11-09T22:04:59.132Z,15
2022-11-09T22:10:12.335Z,15
2022-11-09T22:15:23.783Z,15
2022-11-09T22:20:35.645Z,15
2022-11-09T22:25:48.789Z,15
2022-11-09T22:31:00.353Z,15
2022-11-09T22:36:12.431Z,15
2022-11-09T22:41:24.723Z,15
2022-11-09T22:46:36.640Z,15
2022-11-09T22:51:48.698Z,15
2022-11-09T22:57:00.507Z,15
2022-11-09T23:02:12.434Z,15
2022-11-09T23:07:24.309Z,15
2022-11-09T23:12:36.225Z,15
2022-11-09T23:17:48.311Z,15
2022-11-09T23:23:00.165Z,15
2022-11-09T23:28:11.986Z,15
2022-11-09T23:33:25.041Z,15
2022-11-09T23:38:36.633Z,15
2022-11-09T23:43:50.677Z,15
2022-11-09T23:49:01.850Z,15
2022-11-09T23:54:13.772Z,15
2022-11-09T23:59:25.635Z,14
